Arcade, New York
Current Conditions -  °F | °C
As of 6:35 AM on Thursday 18 Dec 2014 (Local Time) from KOLE Reporting Station
Overcast Overcast  
Wind Chill: 16°   Ceiling: 900
Heat Index: 25°   Visibility: 10mi
Dew Point: 25°   Wind: 8mph
Humidity: 100%   Direction: 280°W
Pressure: 30"   Gusts: 18mph
Location:  42.53°N, 78.42°W
Report Text: KOLE 181135Z AUTO 28007G16KT 230V360 10SM OVC009 M04/M04 A3000 RMK AO2
Loading
Personal Weather Stations






























Interactive Weather Map New forecast layout! Learn more

10-Day Weather Forecast

Advertisements
Track Severe Weather on mobile